sensor_id;sensor_type;location;lat;lon;timestamp;P1;durP1;ratioP1;P2;durP2;ratioP2
66429;SDS011;53242;51.694;10.006;2023-11-21T00:01:54;7.38;;;2.38;;
66429;SDS011;53242;51.694;10.006;2023-11-21T00:04:16;5.63;;;2.58;;
66429;SDS011;53242;51.694;10.006;2023-11-21T00:06:39;9.63;;;2.50;;
66429;SDS011;53242;51.694;10.006;2023-11-21T00:09:03;6.53;;;2.80;;
66429;SDS011;53242;51.694;10.006;2023-11-21T00:11:25;6.38;;;2.63;;
66429;SDS011;53242;51.694;10.006;2023-11-21T00:13:47;6.70;;;2.35;;
66429;SDS011;53242;51.694;10.006;2023-11-21T00:16:10;9.75;;;3.17;;
66429;SDS011;53242;51.694;10.006;2023-11-21T00:18:32;11.05;;;2.85;;
66429;SDS011;53242;51.694;10.006;2023-11-21T00:20:54;8.77;;;2.72;;
66429;SDS011;53242;51.694;10.006;2023-11-21T00:23:17;8.90;;;2.92;;
66429;SDS011;53242;51.694;10.006;2023-11-21T00:25:40;10.40;;;3.58;;
66429;SDS011;53242;51.694;10.006;2023-11-21T00:28:02;11.80;;;4.07;;
66429;SDS011;53242;51.694;10.006;2023-11-21T00:30:25;11.70;;;4.03;;
66429;SDS011;53242;51.694;10.006;2023-11-21T00:32:47;11.13;;;3.92;;
66429;SDS011;53242;51.694;10.006;2023-11-21T00:35:10;12.48;;;4.60;;
66429;SDS011;53242;51.694;10.006;2023-11-21T00:37:32;12.98;;;3.97;;
66429;SDS011;53242;51.694;10.006;2023-11-21T00:39:55;11.32;;;4.00;;
66429;SDS011;53242;51.694;10.006;2023-11-21T00:42:18;9.05;;;3.50;;
66429;SDS011;53242;51.694;10.006;2023-11-21T00:44:41;11.40;;;3.80;;
66429;SDS011;53242;51.694;10.006;2023-11-21T00:47:04;11.80;;;3.80;;
66429;SDS011;53242;51.694;10.006;2023-11-21T00:49:26;8.57;;;3.30;;
66429;SDS011;53242;51.694;10.006;2023-11-21T00:51:50;9.63;;;3.92;;
66429;SDS011;53242;51.694;10.006;2023-11-21T00:54:12;11.23;;;3.42;;
66429;SDS011;53242;51.694;10.006;2023-11-21T00:56:34;9.70;;;3.70;;
66429;SDS011;53242;51.694;10.006;2023-11-21T00:58:57;11.40;;;3.78;;
66429;SDS011;53242;51.694;10.006;2023-11-21T01:01:20;9.55;;;3.70;;
66429;SDS011;53242;51.694;10.006;2023-11-21T01:03:47;10.30;;;3.65;;
66429;SDS011;53242;51.694;10.006;2023-11-21T01:06:10;8.77;;;3.50;;
66429;SDS011;53242;51.694;10.006;2023-11-21T01:08:33;9.65;;;3.38;;
66429;SDS011;53242;51.694;10.006;2023-11-21T01:10:55;8.88;;;3.63;;
66429;SDS011;53242;51.694;10.006;2023-11-21T01:13:18;12.95;;;3.80;;
66429;SDS011;53242;51.694;10.006;2023-11-21T01:15:40;12.27;;;3.42;;
66429;SDS011;53242;51.694;10.006;2023-11-21T01:18:03;9.35;;;3.55;;
66429;SDS011;53242;51.694;10.006;2023-11-21T01:20:26;9.55;;;3.40;;
66429;SDS011;53242;51.694;10.006;2023-11-21T01:22:48;11.82;;;3.78;;
66429;SDS011;53242;51.694;10.006;2023-11-21T01:25:11;10.65;;;3.35;;
66429;SDS011;53242;51.694;10.006;2023-11-21T01:27:34;11.98;;;4.07;;
66429;SDS011;53242;51.694;10.006;2023-11-21T01:29:56;9.27;;;4.05;;
66429;SDS011;53242;51.694;10.006;2023-11-21T01:32:19;11.25;;;3.70;;
66429;SDS011;53242;51.694;10.006;2023-11-21T01:34:41;11.88;;;3.80;;
66429;SDS011;53242;51.694;10.006;2023-11-21T01:37:04;11.32;;;4.32;;
66429;SDS011;53242;51.694;10.006;2023-11-21T01:39:27;10.32;;;4.22;;
66429;SDS011;53242;51.694;10.006;2023-11-21T01:41:50;11.68;;;4.13;;
66429;SDS011;53242;51.694;10.006;2023-11-21T01:44:14;8.65;;;3.70;;
66429;SDS011;53242;51.694;10.006;2023-11-21T01:46:36;8.25;;;3.55;;
66429;SDS011;53242;51.694;10.006;2023-11-21T01:49:00;14.43;;;3.72;;
66429;SDS011;53242;51.694;10.006;2023-11-21T01:51:22;9.02;;;3.75;;
66429;SDS011;53242;51.694;10.006;2023-11-21T01:53:45;10.07;;;3.67;;
66429;SDS011;53242;51.694;10.006;2023-11-21T01:56:08;10.63;;;3.80;;
66429;SDS011;53242;51.694;10.006;2023-11-21T01:58:32;9.40;;;3.60;;
66429;SDS011;53242;51.694;10.006;2023-11-21T02:00:54;13.10;;;3.97;;
66429;SDS011;53242;51.694;10.006;2023-11-21T02:03:17;13.95;;;3.67;;
66429;SDS011;53242;51.694;10.006;2023-11-21T02:05:40;10.52;;;3.42;;
66429;SDS011;53242;51.694;10.006;2023-11-21T02:08:02;11.15;;;3.75;;
66429;SDS011;53242;51.694;10.006;2023-11-21T02:10:26;11.73;;;4.13;;
66429;SDS011;53242;51.694;10.006;2023-11-21T02:12:49;8.93;;;4.03;;
66429;SDS011;53242;51.694;10.006;2023-11-21T02:15:14;10.93;;;3.70;;
66429;SDS011;53242;51.694;10.006;2023-11-21T02:17:37;10.07;;;3.85;;
66429;SDS011;53242;51.694;10.006;2023-11-21T02:20:00;11.73;;;3.45;;
66429;SDS011;53242;51.694;10.006;2023-11-21T02:22:23;9.38;;;3.50;;
66429;SDS011;53242;51.694;10.006;2023-11-21T02:24:51;14.73;;;4.00;;
66429;SDS011;53242;51.694;10.006;2023-11-21T02:27:13;13.05;;;4.45;;
66429;SDS011;53242;51.694;10.006;2023-11-21T02:29:39;12.18;;;4.10;;
66429;SDS011;53242;51.694;10.006;2023-11-21T02:32:02;10.90;;;4.00;;
66429;SDS011;53242;51.694;10.006;2023-11-21T02:34:25;9.77;;;3.97;;
66429;SDS011;53242;51.694;10.006;2023-11-21T02:36:48;14.25;;;3.88;;
66429;SDS011;53242;51.694;10.006;2023-11-21T02:39:13;15.18;;;4.45;;
66429;SDS011;53242;51.694;10.006;2023-11-21T02:41:39;13.65;;;4.47;;
66429;SDS011;53242;51.694;10.006;2023-11-21T02:44:01;12.30;;;4.30;;
66429;SDS011;53242;51.694;10.006;2023-11-21T02:46:24;12.98;;;4.00;;
66429;SDS011;53242;51.694;10.006;2023-11-21T02:48:46;18.35;;;4.80;;
66429;SDS011;53242;51.694;10.006;2023-11-21T02:51:09;13.50;;;4.35;;
66429;SDS011;53242;51.694;10.006;2023-11-21T02:53:31;12.63;;;4.22;;
66429;SDS011;53242;51.694;10.006;2023-11-21T02:55:54;13.02;;;4.35;;
66429;SDS011;53242;51.694;10.006;2023-11-21T02:58:16;12.45;;;4.30;;
66429;SDS011;53242;51.694;10.006;2023-11-21T03:00:39;13.57;;;4.60;;
66429;SDS011;53242;51.694;10.006;2023-11-21T03:03:04;10.48;;;4.40;;
66429;SDS011;53242;51.694;10.006;2023-11-21T03:05:26;11.23;;;4.07;;
66429;SDS011;53242;51.694;10.006;2023-11-21T03:07:50;15.07;;;4.85;;
66429;SDS011;53242;51.694;10.006;2023-11-21T03:10:13;12.38;;;4.57;;
66429;SDS011;53242;51.694;10.006;2023-11-21T03:12:35;12.30;;;4.40;;
66429;SDS011;53242;51.694;10.006;2023-11-21T03:14:58;13.32;;;4.35;;
66429;SDS011;53242;51.694;10.006;2023-11-21T03:17:20;12.82;;;4.32;;
66429;SDS011;53242;51.694;10.006;2023-11-21T03:19:43;20.63;;;7.40;;
66429;SDS011;53242;51.694;10.006;2023-11-21T03:22:06;37.80;;;10.93;;
66429;SDS011;53242;51.694;10.006;2023-11-21T03:24:29;38.67;;;12.07;;
66429;SDS011;53242;51.694;10.006;2023-11-21T03:26:51;107.43;;;31.90;;
66429;SDS011;53242;51.694;10.006;2023-11-21T03:29:14;120.05;;;36.88;;
66429;SDS011;53242;51.694;10.006;2023-11-21T03:31:37;34.00;;;11.40;;
66429;SDS011;53242;51.694;10.006;2023-11-21T03:33:59;13.13;;;5.18;;
66429;SDS011;53242;51.694;10.006;2023-11-21T03:36:22;12.70;;;4.72;;
66429;SDS011;53242;51.694;10.006;2023-11-21T03:38:44;12.93;;;4.95;;
66429;SDS011;53242;51.694;10.006;2023-11-21T03:41:06;15.27;;;4.70;;
66429;SDS011;53242;51.694;10.006;2023-11-21T03:43:32;14.18;;;4.80;;
66429;SDS011;53242;51.694;10.006;2023-11-21T03:45:54;12.73;;;4.60;;
66429;SDS011;53242;51.694;10.006;2023-11-21T03:48:16;13.82;;;5.50;;
66429;SDS011;53242;51.694;10.006;2023-11-21T03:50:39;14.45;;;5.88;;
66429;SDS011;53242;51.694;10.006;2023-11-21T03:53:02;19.45;;;5.93;;
66429;SDS011;53242;51.694;10.006;2023-11-21T03:55:26;15.38;;;5.38;;
66429;SDS011;53242;51.694;10.006;2023-11-21T03:57:48;13.52;;;5.18;;
66429;SDS011;53242;51.694;10.006;2023-11-21T04:00:11;18.77;;;5.20;;
66429;SDS011;53242;51.694;10.006;2023-11-21T04:02:36;14.77;;;5.05;;
66429;SDS011;53242;51.694;10.006;2023-11-21T04:04:59;16.10;;;5.82;;
66429;SDS011;53242;51.694;10.006;2023-11-21T04:07:21;13.88;;;5.10;;
66429;SDS011;53242;51.694;10.006;2023-11-21T04:09:44;14.02;;;5.78;;
66429;SDS011;53242;51.694;10.006;2023-11-21T04:12:06;13.57;;;4.78;;
66429;SDS011;53242;51.694;10.006;2023-11-21T04:14:31;11.30;;;4.45;;
66429;SDS011;53242;51.694;10.006;2023-11-21T04:16:54;13.85;;;4.18;;
66429;SDS011;53242;51.694;10.006;2023-11-21T04:19:17;12.93;;;4.85;;
66429;SDS011;53242;51.694;10.006;2023-11-21T04:21:39;10.77;;;4.57;;
66429;SDS011;53242;51.694;10.006;2023-11-21T04:24:02;13.18;;;4.28;;
66429;SDS011;53242;51.694;10.006;2023-11-21T04:26:24;14.10;;;4.93;;
66429;SDS011;53242;51.694;10.006;2023-11-21T04:28:47;13.60;;;4.05;;
66429;SDS011;53242;51.694;10.006;2023-11-21T04:31:09;16.48;;;4.45;;
66429;SDS011;53242;51.694;10.006;2023-11-21T04:33:31;13.60;;;4.30;;
66429;SDS011;53242;51.694;10.006;2023-11-21T04:35:54;12.15;;;4.60;;
66429;SDS011;53242;51.694;10.006;2023-11-21T04:38:16;14.98;;;4.18;;
66429;SDS011;53242;51.694;10.006;2023-11-21T04:40:39;12.75;;;4.57;;
66429;SDS011;53242;51.694;10.006;2023-11-21T04:43:01;13.65;;;4.70;;
66429;SDS011;53242;51.694;10.006;2023-11-21T04:45:24;14.32;;;5.13;;
66429;SDS011;53242;51.694;10.006;2023-11-21T04:47:46;14.70;;;4.75;;
66429;SDS011;53242;51.694;10.006;2023-11-21T04:50:09;15.52;;;4.80;;
66429;SDS011;53242;51.694;10.006;2023-11-21T04:52:31;20.27;;;5.65;;
66429;SDS011;53242;51.694;10.006;2023-11-21T04:54:55;15.40;;;5.05;;
66429;SDS011;53242;51.694;10.006;2023-11-21T04:57:20;17.75;;;5.22;;
66429;SDS011;53242;51.694;10.006;2023-11-21T04:59:43;14.90;;;5.07;;
66429;SDS011;53242;51.694;10.006;2023-11-21T05:02:06;17.40;;;5.47;;
66429;SDS011;53242;51.694;10.006;2023-11-21T05:04:28;15.15;;;5.50;;
66429;SDS011;53242;51.694;10.006;2023-11-21T05:06:51;17.58;;;5.30;;
66429;SDS011;53242;51.694;10.006;2023-11-21T05:09:13;19.50;;;5.82;;
66429;SDS011;53242;51.694;10.006;2023-11-21T05:11:35;21.65;;;6.63;;
66429;SDS011;53242;51.694;10.006;2023-11-21T05:13:58;19.17;;;6.53;;
66429;SDS011;53242;51.694;10.006;2023-11-21T05:16:25;18.20;;;6.35;;
66429;SDS011;53242;51.694;10.006;2023-11-21T05:18:49;22.25;;;6.35;;
66429;SDS011;53242;51.694;10.006;2023-11-21T05:21:12;27.75;;;8.07;;
66429;SDS011;53242;51.694;10.006;2023-11-21T05:23:35;31.90;;;10.00;;
66429;SDS011;53242;51.694;10.006;2023-11-21T05:25:57;44.13;;;14.45;;
66429;SDS011;53242;51.694;10.006;2023-11-21T05:28:19;27.48;;;10.77;;
66429;SDS011;53242;51.694;10.006;2023-11-21T05:30:42;22.20;;;6.72;;
66429;SDS011;53242;51.694;10.006;2023-11-21T05:33:05;18.98;;;6.30;;
66429;SDS011;53242;51.694;10.006;2023-11-21T05:35:27;17.85;;;5.95;;
66429;SDS011;53242;51.694;10.006;2023-11-21T05:37:50;24.38;;;8.13;;
66429;SDS011;53242;51.694;10.006;2023-11-21T05:40:12;27.75;;;10.60;;
66429;SDS011;53242;51.694;10.006;2023-11-21T05:42:35;23.52;;;9.43;;
66429;SDS011;53242;51.694;10.006;2023-11-21T05:44:59;24.67;;;8.55;;
66429;SDS011;53242;51.694;10.006;2023-11-21T05:47:31;23.98;;;7.90;;
66429;SDS011;53242;51.694;10.006;2023-11-21T05:49:54;20.98;;;6.13;;
66429;SDS011;53242;51.694;10.006;2023-11-21T05:52:17;23.42;;;6.65;;
66429;SDS011;53242;51.694;10.006;2023-11-21T05:54:40;17.65;;;6.78;;
66429;SDS011;53242;51.694;10.006;2023-11-21T05:57:02;21.63;;;6.93;;
66429;SDS011;53242;51.694;10.006;2023-11-21T05:59:24;16.83;;;6.63;;
66429;SDS011;53242;51.694;10.006;2023-11-21T06:01:47;23.45;;;7.07;;
66429;SDS011;53242;51.694;10.006;2023-11-21T06:04:09;32.92;;;11.88;;
66429;SDS011;53242;51.694;10.006;2023-11-21T06:06:32;42.28;;;14.85;;
66429;SDS011;53242;51.694;10.006;2023-11-21T06:08:55;32.75;;;10.60;;
66429;SDS011;53242;51.694;10.006;2023-11-21T06:11:17;24.13;;;8.27;;
66429;SDS011;53242;51.694;10.006;2023-11-21T06:13:40;31.27;;;9.52;;
66429;SDS011;53242;51.694;10.006;2023-11-21T06:16:02;26.80;;;9.25;;
66429;SDS011;53242;51.694;10.006;2023-11-21T06:18:24;22.42;;;7.70;;
66429;SDS011;53242;51.694;10.006;2023-11-21T06:20:47;31.85;;;9.85;;
66429;SDS011;53242;51.694;10.006;2023-11-21T06:23:09;30.25;;;10.00;;
66429;SDS011;53242;51.694;10.006;2023-11-21T06:25:32;26.08;;;8.90;;
66429;SDS011;53242;51.694;10.006;2023-11-21T06:27:58;30.02;;;9.23;;
66429;SDS011;53242;51.694;10.006;2023-11-21T06:30:20;32.67;;;11.55;;
66429;SDS011;53242;51.694;10.006;2023-11-21T06:32:43;26.90;;;9.13;;
66429;SDS011;53242;51.694;10.006;2023-11-21T06:35:09;28.67;;;10.02;;
66429;SDS011;53242;51.694;10.006;2023-11-21T06:37:32;40.10;;;12.00;;
66429;SDS011;53242;51.694;10.006;2023-11-21T06:39:54;30.67;;;9.75;;
66429;SDS011;53242;51.694;10.006;2023-11-21T06:42:18;39.53;;;12.75;;
66429;SDS011;53242;51.694;10.006;2023-11-21T06:44:41;29.92;;;9.27;;
66429;SDS011;53242;51.694;10.006;2023-11-21T06:47:04;31.98;;;10.77;;
66429;SDS011;53242;51.694;10.006;2023-11-21T06:49:26;24.27;;;7.93;;
66429;SDS011;53242;51.694;10.006;2023-11-21T06:51:49;24.20;;;8.57;;
66429;SDS011;53242;51.694;10.006;2023-11-21T06:54:11;28.13;;;8.55;;
66429;SDS011;53242;51.694;10.006;2023-11-21T06:56:33;20.42;;;7.60;;
66429;SDS011;53242;51.694;10.006;2023-11-21T06:58:56;24.75;;;7.32;;
66429;SDS011;53242;51.694;10.006;2023-11-21T07:01:18;22.05;;;7.43;;
66429;SDS011;53242;51.694;10.006;2023-11-21T07:03:41;21.70;;;7.45;;
66429;SDS011;53242;51.694;10.006;2023-11-21T07:06:04;25.58;;;8.95;;
66429;SDS011;53242;51.694;10.006;2023-11-21T07:08:26;29.23;;;9.70;;
66429;SDS011;53242;51.694;10.006;2023-11-21T07:10:49;30.55;;;9.00;;
66429;SDS011;53242;51.694;10.006;2023-11-21T07:13:11;28.92;;;8.30;;
66429;SDS011;53242;51.694;10.006;2023-11-21T07:15:34;25.25;;;7.88;;
66429;SDS011;53242;51.694;10.006;2023-11-21T07:17:56;27.92;;;8.45;;
66429;SDS011;53242;51.694;10.006;2023-11-21T07:20:19;20.35;;;6.10;;
66429;SDS011;53242;51.694;10.006;2023-11-21T07:22:41;19.17;;;6.72;;
66429;SDS011;53242;51.694;10.006;2023-11-21T07:25:04;21.20;;;6.57;;
66429;SDS011;53242;51.694;10.006;2023-11-21T07:27:27;24.88;;;7.15;;
66429;SDS011;53242;51.694;10.006;2023-11-21T07:29:50;21.13;;;7.32;;
66429;SDS011;53242;51.694;10.006;2023-11-21T07:32:12;22.10;;;6.93;;
66429;SDS011;53242;51.694;10.006;2023-11-21T07:34:36;20.27;;;5.93;;
66429;SDS011;53242;51.694;10.006;2023-11-21T07:36:59;22.55;;;6.60;;
66429;SDS011;53242;51.694;10.006;2023-11-21T07:39:21;20.83;;;6.70;;
66429;SDS011;53242;51.694;10.006;2023-11-21T07:41:43;22.92;;;5.63;;
66429;SDS011;53242;51.694;10.006;2023-11-21T07:44:10;17.33;;;6.03;;
66429;SDS011;53242;51.694;10.006;2023-11-21T07:46:32;20.98;;;6.25;;
66429;SDS011;53242;51.694;10.006;2023-11-21T07:48:55;21.02;;;6.32;;
66429;SDS011;53242;51.694;10.006;2023-11-21T07:51:17;17.20;;;5.63;;
66429;SDS011;53242;51.694;10.006;2023-11-21T07:53:40;20.88;;;6.63;;
66429;SDS011;53242;51.694;10.006;2023-11-21T07:56:03;18.17;;;6.25;;
66429;SDS011;53242;51.694;10.006;2023-11-21T07:58:26;19.40;;;6.60;;
66429;SDS011;53242;51.694;10.006;2023-11-21T08:00:49;21.80;;;6.25;;
66429;SDS011;53242;51.694;10.006;2023-11-21T08:03:15;21.30;;;5.88;;
66429;SDS011;53242;51.694;10.006;2023-11-21T08:05:38;20.40;;;6.38;;
66429;SDS011;53242;51.694;10.006;2023-11-21T08:08:00;18.95;;;6.13;;
66429;SDS011;53242;51.694;10.006;2023-11-21T08:10:23;17.15;;;6.32;;
66429;SDS011;53242;51.694;10.006;2023-11-21T08:12:45;21.33;;;6.82;;
66429;SDS011;53242;51.694;10.006;2023-11-21T08:15:10;21.42;;;6.82;;
66429;SDS011;53242;51.694;10.006;2023-11-21T08:17:32;22.38;;;6.57;;
66429;SDS011;53242;51.694;10.006;2023-11-21T08:19:55;23.70;;;8.27;;
66429;SDS011;53242;51.694;10.006;2023-11-21T08:22:17;22.35;;;6.82;;
66429;SDS011;53242;51.694;10.006;2023-11-21T08:24:40;28.75;;;9.00;;
66429;SDS011;53242;51.694;10.006;2023-11-21T08:27:02;28.08;;;8.40;;
66429;SDS011;53242;51.694;10.006;2023-11-21T08:29:26;27.50;;;9.05;;
66429;SDS011;53242;51.694;10.006;2023-11-21T08:31:48;22.42;;;8.10;;
66429;SDS011;53242;51.694;10.006;2023-11-21T08:34:11;27.58;;;7.70;;
66429;SDS011;53242;51.694;10.006;2023-11-21T08:36:33;29.38;;;8.25;;
66429;SDS011;53242;51.694;10.006;2023-11-21T08:38:56;23.63;;;8.20;;
66429;SDS011;53242;51.694;10.006;2023-11-21T08:41:18;28.02;;;8.73;;
66429;SDS011;53242;51.694;10.006;2023-11-21T08:43:43;27.52;;;8.70;;
66429;SDS011;53242;51.694;10.006;2023-11-21T08:46:06;27.63;;;8.77;;
66429;SDS011;53242;51.694;10.006;2023-11-21T08:48:30;25.98;;;8.07;;
66429;SDS011;53242;51.694;10.006;2023-11-21T08:50:53;28.92;;;8.00;;
66429;SDS011;53242;51.694;10.006;2023-11-21T08:53:16;29.63;;;8.27;;
66429;SDS011;53242;51.694;10.006;2023-11-21T08:55:38;25.58;;;6.65;;
66429;SDS011;53242;51.694;10.006;2023-11-21T08:58:01;24.88;;;7.43;;
66429;SDS011;53242;51.694;10.006;2023-11-21T09:00:24;24.05;;;7.32;;
66429;SDS011;53242;51.694;10.006;2023-11-21T09:02:47;31.75;;;9.15;;
66429;SDS011;53242;51.694;10.006;2023-11-21T09:05:10;39.25;;;13.80;;
66429;SDS011;53242;51.694;10.006;2023-11-21T09:07:33;31.23;;;9.75;;
66429;SDS011;53242;51.694;10.006;2023-11-21T09:09:55;30.40;;;8.77;;
66429;SDS011;53242;51.694;10.006;2023-11-21T09:12:18;31.02;;;9.45;;
66429;SDS011;53242;51.694;10.006;2023-11-21T09:14:42;29.98;;;9.38;;
66429;SDS011;53242;51.694;10.006;2023-11-21T09:19:32;25.20;;;7.70;;
66429;SDS011;53242;51.694;10.006;2023-11-21T09:21:55;33.00;;;9.10;;
66429;SDS011;53242;51.694;10.006;2023-11-21T09:24:19;21.52;;;8.25;;
66429;SDS011;53242;51.694;10.006;2023-11-21T09:26:41;28.95;;;9.98;;
66429;SDS011;53242;51.694;10.006;2023-11-21T09:29:04;29.48;;;9.38;;
66429;SDS011;53242;51.694;10.006;2023-11-21T09:31:26;24.27;;;8.77;;
66429;SDS011;53242;51.694;10.006;2023-11-21T09:33:49;28.08;;;9.18;;
66429;SDS011;53242;51.694;10.006;2023-11-21T09:36:12;27.10;;;9.55;;
66429;SDS011;53242;51.694;10.006;2023-11-21T09:38:38;25.52;;;8.70;;
66429;SDS011;53242;51.694;10.006;2023-11-21T09:41:01;31.73;;;10.45;;
66429;SDS011;53242;51.694;10.006;2023-11-21T09:43:24;24.70;;;8.23;;
66429;SDS011;53242;51.694;10.006;2023-11-21T09:45:59;27.10;;;8.65;;
66429;SDS011;53242;51.694;10.006;2023-11-21T09:48:24;29.77;;;8.70;;
66429;SDS011;53242;51.694;10.006;2023-11-21T09:50:47;29.63;;;9.25;;
66429;SDS011;53242;51.694;10.006;2023-11-21T09:53:18;27.60;;;9.10;;
66429;SDS011;53242;51.694;10.006;2023-11-21T09:55:50;28.38;;;9.57;;
66429;SDS011;53242;51.694;10.006;2023-11-21T09:58:15;24.52;;;8.63;;
66429;SDS011;53242;51.694;10.006;2023-11-21T10:00:48;20.17;;;7.07;;
66429;SDS011;53242;51.694;10.006;2023-11-21T10:03:14;24.25;;;8.45;;
66429;SDS011;53242;51.694;10.006;2023-11-21T10:05:37;24.23;;;7.75;;
66429;SDS011;53242;51.694;10.006;2023-11-21T10:08:00;21.17;;;8.30;;
66429;SDS011;53242;51.694;10.006;2023-11-21T10:10:22;25.13;;;6.97;;
66429;SDS011;53242;51.694;10.006;2023-11-21T10:12:50;18.55;;;6.95;;
66429;SDS011;53242;51.694;10.006;2023-11-21T10:15:15;21.48;;;7.40;;
66429;SDS011;53242;51.694;10.006;2023-11-21T10:17:38;20.83;;;6.43;;
66429;SDS011;53242;51.694;10.006;2023-11-21T10:20:07;20.92;;;6.95;;
66429;SDS011;53242;51.694;10.006;2023-11-21T10:22:33;23.77;;;6.82;;
66429;SDS011;53242;51.694;10.006;2023-11-21T10:24:56;20.08;;;6.53;;
66429;SDS011;53242;51.694;10.006;2023-11-21T10:27:19;21.52;;;6.88;;
66429;SDS011;53242;51.694;10.006;2023-11-21T10:29:41;20.77;;;6.95;;
66429;SDS011;53242;51.694;10.006;2023-11-21T10:32:04;22.10;;;7.78;;
66429;SDS011;53242;51.694;10.006;2023-11-21T10:34:27;21.48;;;6.32;;
66429;SDS011;53242;51.694;10.006;2023-11-21T10:36:49;20.17;;;7.28;;
66429;SDS011;53242;51.694;10.006;2023-11-21T10:39:18;23.08;;;7.75;;
66429;SDS011;53242;51.694;10.006;2023-11-21T10:41:43;25.13;;;7.43;;
66429;SDS011;53242;51.694;10.006;2023-11-21T10:44:08;19.67;;;7.30;;
66429;SDS011;53242;51.694;10.006;2023-11-21T10:46:31;20.77;;;6.90;;
66429;SDS011;53242;51.694;10.006;2023-11-21T10:48:54;20.60;;;6.82;;
66429;SDS011;53242;51.694;10.006;2023-11-21T10:51:18;21.05;;;7.22;;
66429;SDS011;53242;51.694;10.006;2023-11-21T10:53:41;18.75;;;6.85;;
66429;SDS011;53242;51.694;10.006;2023-11-21T10:56:05;23.25;;;8.07;;
66429;SDS011;53242;51.694;10.006;2023-11-21T10:58:30;19.38;;;7.13;;
66429;SDS011;53242;51.694;10.006;2023-11-21T11:00:54;20.83;;;6.60;;
66429;SDS011;53242;51.694;10.006;2023-11-21T11:03:17;19.95;;;7.05;;
66429;SDS011;53242;51.694;10.006;2023-11-21T11:05:39;21.88;;;6.75;;
66429;SDS011;53242;51.694;10.006;2023-11-21T11:08:04;19.20;;;6.07;;
66429;SDS011;53242;51.694;10.006;2023-11-21T11:10:28;16.23;;;5.22;;
66429;SDS011;53242;51.694;10.006;2023-11-21T11:12:53;11.43;;;3.53;;
66429;SDS011;53242;51.694;10.006;2023-11-21T11:15:17;6.35;;;2.13;;
66429;SDS011;53242;51.694;10.006;2023-11-21T11:17:39;5.88;;;2.28;;
66429;SDS011;53242;51.694;10.006;2023-11-21T11:20:04;2.33;;;1.08;;
66429;SDS011;53242;51.694;10.006;2023-11-21T11:22:57;6.57;;;2.20;;
66429;SDS011;53242;51.694;10.006;2023-11-21T11:25:25;3.35;;;1.05;;
66429;SDS011;53242;51.694;10.006;2023-11-21T11:28:14;3.05;;;1.58;;
66429;SDS011;53242;51.694;10.006;2023-11-21T11:30:47;6.65;;;1.85;;
66429;SDS011;53242;51.694;10.006;2023-11-21T11:33:41;5.68;;;2.15;;
66429;SDS011;53242;51.694;10.006;2023-11-21T11:36:12;6.88;;;2.40;;
66429;SDS011;53242;51.694;10.006;2023-11-21T11:38:39;6.68;;;2.55;;
66429;SDS011;53242;51.694;10.006;2023-11-21T11:41:08;8.52;;;3.20;;
66429;SDS011;53242;51.694;10.006;2023-11-21T11:43:31;7.80;;;2.58;;
66429;SDS011;53242;51.694;10.006;2023-11-21T11:46:06;6.88;;;2.60;;
66429;SDS011;53242;51.694;10.006;2023-11-21T11:48:29;7.40;;;2.22;;
66429;SDS011;53242;51.694;10.006;2023-11-21T11:51:01;6.95;;;2.70;;
66429;SDS011;53242;51.694;10.006;2023-11-21T11:53:43;7.38;;;2.65;;
66429;SDS011;53242;51.694;10.006;2023-11-21T11:56:24;7.03;;;2.67;;
66429;SDS011;53242;51.694;10.006;2023-11-21T11:58:56;7.97;;;3.50;;
66429;SDS011;53242;51.694;10.006;2023-11-21T12:01:19;7.55;;;2.67;;
66429;SDS011;53242;51.694;10.006;2023-11-21T12:03:42;8.70;;;2.75;;
66429;SDS011;53242;51.694;10.006;2023-11-21T12:06:05;7.38;;;2.75;;
66429;SDS011;53242;51.694;10.006;2023-11-21T12:08:29;8.18;;;2.95;;
66429;SDS011;53242;51.694;10.006;2023-11-21T12:13:16;7.60;;;3.00;;
66429;SDS011;53242;51.694;10.006;2023-11-21T12:15:39;6.97;;;2.70;;
66429;SDS011;53242;51.694;10.006;2023-11-21T12:20:25;8.80;;;3.38;;
66429;SDS011;53242;51.694;10.006;2023-11-21T12:22:52;7.95;;;2.88;;
66429;SDS011;53242;51.694;10.006;2023-11-21T12:25:16;9.88;;;2.80;;
66429;SDS011;53242;51.694;10.006;2023-11-21T12:27:40;11.88;;;3.33;;
66429;SDS011;53242;51.694;10.006;2023-11-21T12:30:03;13.05;;;3.72;;
66429;SDS011;53242;51.694;10.006;2023-11-21T12:32:26;9.38;;;3.60;;
66429;SDS011;53242;51.694;10.006;2023-11-21T12:34:49;10.13;;;3.40;;
66429;SDS011;53242;51.694;10.006;2023-11-21T12:37:11;6.90;;;3.25;;
66429;SDS011;53242;51.694;10.006;2023-11-21T12:39:34;8.85;;;3.30;;
66429;SDS011;53242;51.694;10.006;2023-11-21T12:41:56;9.75;;;4.00;;
66429;SDS011;53242;51.694;10.006;2023-11-21T12:44:19;11.13;;;3.90;;
66429;SDS011;53242;51.694;10.006;2023-11-21T12:46:42;10.25;;;3.10;;
66429;SDS011;53242;51.694;10.006;2023-11-21T12:49:07;10.90;;;3.55;;
66429;SDS011;53242;51.694;10.006;2023-11-21T12:51:29;10.30;;;3.88;;
66429;SDS011;53242;51.694;10.006;2023-11-21T12:53:52;9.95;;;3.17;;
66429;SDS011;53242;51.694;10.006;2023-11-21T12:56:15;11.35;;;4.53;;
66429;SDS011;53242;51.694;10.006;2023-11-21T12:58:39;11.10;;;4.38;;
66429;SDS011;53242;51.694;10.006;2023-11-21T13:01:06;9.43;;;3.97;;
66429;SDS011;53242;51.694;10.006;2023-11-21T13:03:33;10.90;;;3.63;;
66429;SDS011;53242;51.694;10.006;2023-11-21T13:05:58;12.68;;;4.80;;
66429;SDS011;53242;51.694;10.006;2023-11-21T13:08:21;10.48;;;4.00;;
66429;SDS011;53242;51.694;10.006;2023-11-21T13:10:45;10.68;;;3.90;;
66429;SDS011;53242;51.694;10.006;2023-11-21T13:13:10;10.40;;;3.88;;
66429;SDS011;53242;51.694;10.006;2023-11-21T13:15:39;10.80;;;4.85;;
66429;SDS011;53242;51.694;10.006;2023-11-21T13:18:03;9.43;;;4.40;;
66429;SDS011;53242;51.694;10.006;2023-11-21T13:20:25;10.80;;;3.45;;
66429;SDS011;53242;51.694;10.006;2023-11-21T13:22:52;9.52;;;3.97;;
66429;SDS011;53242;51.694;10.006;2023-11-21T13:25:16;10.18;;;3.75;;
66429;SDS011;53242;51.694;10.006;2023-11-21T13:27:41;10.45;;;4.35;;
66429;SDS011;53242;51.694;10.006;2023-11-21T13:30:05;11.10;;;3.83;;
66429;SDS011;53242;51.694;10.006;2023-11-21T13:32:30;9.52;;;3.03;;
66429;SDS011;53242;51.694;10.006;2023-11-21T13:34:54;10.80;;;3.85;;
66429;SDS011;53242;51.694;10.006;2023-11-21T13:37:17;13.32;;;4.63;;
66429;SDS011;53242;51.694;10.006;2023-11-21T13:39:39;8.88;;;3.35;;
66429;SDS011;53242;51.694;10.006;2023-11-21T13:42:06;8.48;;;3.15;;
66429;SDS011;53242;51.694;10.006;2023-11-21T13:44:29;10.50;;;3.50;;
66429;SDS011;53242;51.694;10.006;2023-11-21T13:46:59;8.45;;;4.15;;
66429;SDS011;53242;51.694;10.006;2023-11-21T13:49:22;7.53;;;3.28;;
66429;SDS011;53242;51.694;10.006;2023-11-21T13:51:45;10.60;;;4.10;;
66429;SDS011;53242;51.694;10.006;2023-11-21T13:54:10;6.22;;;2.58;;
66429;SDS011;53242;51.694;10.006;2023-11-21T13:56:32;10.48;;;3.13;;
66429;SDS011;53242;51.694;10.006;2023-11-21T13:58:54;11.93;;;4.30;;
66429;SDS011;53242;51.694;10.006;2023-11-21T14:01:20;13.00;;;4.13;;
66429;SDS011;53242;51.694;10.006;2023-11-21T14:03:54;9.57;;;3.50;;
66429;SDS011;53242;51.694;10.006;2023-11-21T14:06:22;9.93;;;3.47;;
66429;SDS011;53242;51.694;10.006;2023-11-21T14:08:50;9.32;;;3.53;;
66429;SDS011;53242;51.694;10.006;2023-11-21T14:11:13;9.05;;;3.15;;